createdAt,value
2018-09-18T00:00:33.670Z,77.5
2018-09-18T00:01:33.661Z,78.26
2018-09-18T00:02:33.396Z,78.93
2018-09-18T00:03:33.392Z,78.74
2018-09-18T00:04:33.643Z,77.78
2018-09-18T00:05:33.632Z,77.4
2018-09-18T00:06:33.370Z,77.87
2018-09-18T00:07:33.624Z,77.59
2018-09-18T00:08:33.359Z,77.5
2018-09-18T00:09:33.606Z,76.82
2018-09-18T00:10:33.342Z,76.92
2018-09-18T00:11:33.601Z,76.73
2018-09-18T00:12:33.590Z,76.45
2018-09-18T00:13:33.582Z,77.11
2018-09-18T00:14:33.314Z,76.82
2018-09-18T00:15:33.566Z,76.54
2018-09-18T00:16:33.303Z,76.45
2018-09-18T00:17:33.554Z,75.87
2018-09-18T00:18:33.553Z,75.78
2018-09-18T00:19:33.286Z,75.1
2018-09-18T00:20:33.276Z,75.83
2018-09-18T00:21:33.279Z,75.59
2018-09-18T00:22:33.520Z,75.26
2018-09-18T00:23:33.515Z,75.39
2018-09-18T00:24:33.507Z,74.59
2018-09-18T00:25:33.505Z,74.91
2018-09-18T00:26:33.496Z,74.73
2018-09-18T00:27:33.485Z,75.07
2018-09-18T00:28:33.229Z,75.35
2018-09-18T00:29:33.221Z,74.82
2018-09-18T00:30:33.467Z,75.26
2018-09-18T00:31:33.201Z,73.92
2018-09-18T00:32:33.451Z,73.63
2018-09-18T00:33:33.445Z,73.54
2018-09-18T00:34:33.449Z,74.02
2018-09-18T00:35:33.433Z,73.63
2018-09-18T00:36:33.428Z,73.63
2018-09-18T00:37:33.423Z,73.35
2018-09-18T00:38:33.415Z,72.39
2018-09-18T00:39:33.405Z,72.39
2018-09-18T00:40:33.406Z,71.44
2018-09-18T00:41:33.394Z,71.53
2018-09-18T00:42:33.388Z,71.92
2018-09-18T00:43:33.379Z,72.2
2018-09-18T00:44:33.370Z,72.2
2018-09-18T00:45:33.370Z,72.39
2018-09-18T00:46:33.106Z,71.72
2018-09-18T00:47:33.354Z,71.92
2018-09-18T00:48:33.351Z,71.82
2018-09-18T00:49:33.341Z,71.44
2018-09-18T00:50:33.328Z,71.92
2018-09-18T00:51:33.324Z,71.76
2018-09-18T00:52:33.324Z,71.63
2018-09-18T00:53:33.310Z,71.53
2018-09-18T00:54:33.304Z,71.25
2018-09-18T00:55:33.295Z,71.53
2018-09-18T00:56:33.292Z,71.82
2018-09-18T00:57:33.284Z,71.53
2018-09-18T00:58:33.276Z,71.44
2018-09-18T00:59:33.016Z,70.29
2018-09-18T01:00:33.257Z,70.48
2018-09-18T01:01:33.257Z,70.2
2018-09-18T01:02:32.992Z,69.62
2018-09-18T01:03:33.241Z,69.62
2018-09-18T01:04:33.239Z,70.39
2018-09-18T01:05:32.971Z,70.1
2018-09-18T01:06:33.223Z,70.01
2018-09-18T01:07:32.963Z,69.53
2018-09-18T01:08:33.208Z,68.19
2018-09-18T01:09:33.198Z,67.91
2018-09-18T01:10:33.196Z,67.81
2018-09-18T01:11:32.929Z,67.71
2018-09-18T01:12:33.177Z,67.43
2018-09-18T01:13:33.175Z,66.76
2018-09-18T01:14:33.165Z,67.14
2018-09-18T01:15:33.157Z,66.85
2018-09-18T01:16:33.156Z,66.56
2018-09-18T01:17:33.141Z,66.66
2018-09-18T01:18:33.140Z,66.95
2018-09-18T01:19:33.129Z,66.56
2018-09-18T01:20:33.122Z,65.61
2018-09-18T01:21:33.118Z,66.09
2018-09-18T01:22:33.107Z,65.9
2018-09-18T01:23:33.102Z,65.8
2018-09-18T01:24:33.095Z,65.52
2018-09-18T01:25:32.837Z,65.14
2018-09-18T01:26:33.100Z,64.94
2018-09-18T01:27:32.821Z,65.14
2018-09-18T01:28:33.064Z,65.14
2018-09-18T01:29:33.065Z,65.8
2018-09-18T01:30:32.798Z,65.9
2018-09-18T01:31:33.058Z,65.8
2018-09-18T01:32:32.788Z,65.52
2018-09-18T01:33:32.779Z,65.8
2018-09-18T01:34:32.770Z,66.56
2018-09-18T01:35:32.765Z,65.52
2018-09-18T01:36:33.012Z,65.14
2018-09-18T01:37:32.751Z,64.47
2018-09-18T01:38:33.002Z,64.47
2018-09-18T01:39:32.999Z,65.14
2018-09-18T01:40:32.989Z,64.75
2018-09-18T01:41:32.980Z,64.56
2018-09-18T01:42:33.031Z,64.09
2018-09-18T01:43:32.966Z,63.6
2018-09-18T01:44:32.955Z,63.23
2018-09-18T01:45:32.953Z,63.32
2018-09-18T01:46:32.689Z,62.55
2018-09-18T01:47:32.944Z,62.27
2018-09-18T01:48:32.930Z,62.94
2018-09-18T01:49:32.930Z,62.55
2018-09-18T01:50:32.914Z,63.7
2018-09-18T01:51:32.649Z,63.54
2018-09-18T01:52:32.903Z,63.45
2018-09-18T01:53:32.896Z,63.45
2018-09-18T01:54:32.636Z,63.51
2018-09-18T01:55:32.624Z,63.32
2018-09-18T01:56:32.620Z,62.65
2018-09-18T01:57:32.865Z,63.23
2018-09-18T01:58:32.860Z,62.87
2018-09-18T01:59:32.854Z,61.79
2018-09-18T02:00:32.846Z,61.98
2018-09-18T02:01:32.839Z,61.98
2018-09-18T02:02:32.834Z,62.08
2018-09-18T02:03:32.831Z,61.98
2018-09-18T02:04:32.818Z,61.22
2018-09-18T02:05:32.815Z,61.13
2018-09-18T02:06:32.813Z,61.41
2018-09-18T02:07:32.799Z,60.27
2018-09-18T02:08:32.793Z,60.55
2018-09-18T02:09:32.531Z,60.55
2018-09-18T02:10:32.524Z,60.74
2018-09-18T02:11:32.774Z,60.27
2018-09-18T02:12:32.511Z,60.17
2018-09-18T02:13:32.759Z,60.07
2018-09-18T02:14:32.753Z,60.36
2018-09-18T02:15:32.492Z,59.98
2018-09-18T02:16:32.486Z,59.31
2018-09-18T02:17:32.476Z,58.73
2018-09-18T02:18:32.720Z,58.73
2018-09-18T02:19:32.718Z,59.22
2018-09-18T02:20:32.711Z,58.26
2018-09-18T02:21:32.700Z,58.64
2018-09-18T02:22:32.693Z,58.16
2018-09-18T02:23:32.686Z,57.78
2018-09-18T02:24:32.683Z,57.02
2018-09-18T02:25:32.688Z,56.35
2018-09-18T02:26:32.665Z,56.06
2018-09-18T02:27:32.658Z,55.96
2018-09-18T02:28:32.654Z,55.87
2018-09-18T02:29:32.651Z,55.2
2018-09-18T02:30:32.389Z,55.68
2018-09-18T02:31:32.636Z,55.11
2018-09-18T02:32:32.368Z,55.68
2018-09-18T02:33:32.623Z,56.35
2018-09-18T02:34:32.610Z,55.77
2018-09-18T02:35:32.600Z,55.77
2018-09-18T02:36:32.597Z,56.45
2018-09-18T02:37:32.587Z,56.35
2018-09-18T02:38:32.586Z,56.73
2018-09-18T02:39:32.582Z,55.96
2018-09-18T02:40:32.574Z,56.06
2018-09-18T02:41:32.564Z,55.3
2018-09-18T02:42:32.301Z,54.53
2018-09-18T02:43:32.550Z,54.15
2018-09-18T02:44:32.541Z,54.25
2018-09-18T02:45:32.277Z,54.34
2018-09-18T02:46:32.535Z,54.06
2018-09-18T02:47:32.524Z,53.77
2018-09-18T02:48:32.517Z,54.34
2018-09-18T02:49:32.508Z,53.49
2018-09-18T02:50:32.501Z,53.2
2018-09-18T02:51:32.236Z,53.2
2018-09-18T02:52:32.490Z,52.91
2018-09-18T02:53:32.483Z,53.1
2018-09-18T02:54:32.477Z,52.53
2018-09-18T02:55:32.210Z,52.15
2018-09-18T02:56:32.204Z,51.95
2018-09-18T02:57:32.452Z,52.24
2018-09-18T02:58:32.443Z,53.29
2018-09-18T02:59:32.436Z,54.06
2018-09-18T03:00:32.433Z,55.11
2018-09-18T03:01:32.428Z,55.99
2018-09-18T03:02:32.424Z,56.28
2018-09-18T03:03:32.412Z,56.28
2018-09-18T03:04:32.403Z,57.04
2018-09-18T03:05:32.395Z,58
2018-09-18T03:06:32.397Z,58.1
2018-09-18T03:07:32.394Z,58
2018-09-18T03:08:32.372Z,57.33
2018-09-18T03:09:32.369Z,57.24
2018-09-18T03:10:32.362Z,57.14
2018-09-18T03:11:32.100Z,56.95
2018-09-18T03:12:32.347Z,55.71
2018-09-18T03:13:32.346Z,55.68
2018-09-18T03:14:32.334Z,55.87
2018-09-18T03:15:32.072Z,55.11
2018-09-18T03:16:32.321Z,55.01
2018-09-18T03:17:32.322Z,54.44
2018-09-18T03:18:32.306Z,53.99
2018-09-18T03:19:32.310Z,53.89
2018-09-18T03:20:32.297Z,53.67
2018-09-18T03:21:32.291Z,53.61
2018-09-18T03:22:32.278Z,53.39
2018-09-18T03:23:32.013Z,53.2
2018-09-18T03:24:32.268Z,52.34
2018-09-18T03:25:32.263Z,52.15
2018-09-18T03:26:32.001Z,50.9
2018-09-18T03:27:32.443Z,50.71
2018-09-18T03:28:32.240Z,51.09
2018-09-18T03:29:32.228Z,51.09
2018-09-18T03:30:32.227Z,50.04
2018-09-18T03:31:31.962Z,49.85
2018-09-18T03:32:32.207Z,49.66
2018-09-18T03:33:32.202Z,49.18
2018-09-18T03:34:32.194Z,48.8
2018-09-18T03:35:32.284Z,47.85
2018-09-18T03:36:32.181Z,48.04
2018-09-18T03:37:31.920Z,47.37
2018-09-18T03:38:32.168Z,46.89
2018-09-18T03:39:31.905Z,46.22
2018-09-18T03:40:32.152Z,45.27
2018-09-18T03:41:32.154Z,45.17
2018-09-18T03:42:32.150Z,44.41
2018-09-18T03:43:31.877Z,43.36
2018-09-18T03:44:32.129Z,43.55
2018-09-18T03:45:31.863Z,43.26
2018-09-18T03:46:32.111Z,42.5
2018-09-18T03:47:32.103Z,42.5
2018-09-18T03:48:32.098Z,43
2018-09-18T03:49:31.832Z,43.38
2018-09-18T03:50:32.087Z,44.34
2018-09-18T03:51:32.076Z,44.72
2018-09-18T03:52:32.074Z,44.91
2018-09-18T03:53:32.062Z,44.15
2018-09-18T03:54:32.058Z,44.34
2018-09-18T03:55:32.052Z,45.39
2018-09-18T03:56:32.044Z,44.62
2018-09-18T03:57:32.037Z,44.72
2018-09-18T03:58:32.031Z,43.57
2018-09-18T03:59:32.087Z,42.81
2018-09-18T04:00:32.026Z,42.14
2018-09-18T04:01:31.751Z,41.28
2018-09-18T04:02:31.998Z,41.28
2018-09-18T04:03:31.996Z,42.24
2018-09-18T04:04:31.987Z,42.04
2018-09-18T04:05:31.977Z,42.04
2018-09-18T04:06:31.985Z,42.04
2018-09-18T04:07:31.967Z,40.4
2018-09-18T04:08:31.958Z,40.32
2018-09-18T04:09:31.952Z,40.59
2018-09-18T04:10:31.949Z,39.75
2018-09-18T04:11:31.936Z,39.64
2018-09-18T04:12:31.932Z,39.73
2018-09-18T04:13:31.932Z,39.06
2018-09-18T04:14:31.916Z,38.39
2018-09-18T04:15:31.654Z,38.1
2018-09-18T04:16:31.901Z,38.1
2018-09-18T04:17:32.007Z,37.73
2018-09-18T04:18:31.893Z,37.63
2018-09-18T04:19:31.624Z,37.53
2018-09-18T04:20:31.875Z,36.77
2018-09-18T04:21:31.874Z,35.33
2018-09-18T04:22:31.863Z,34.95
2018-09-18T04:23:31.869Z,35.05
2018-09-18T04:24:31.852Z,34.19
2018-09-18T04:25:31.843Z,34
2018-09-18T04:26:31.581Z,33.23
2018-09-18T04:27:31.838Z,32.47
2018-09-18T04:28:31.823Z,31.99
2018-09-18T04:29:31.557Z,30.75
2018-09-18T04:30:31.552Z,30.75
2018-09-18T04:31:31.809Z,30.66
2018-09-18T04:32:31.792Z,30.46
2018-09-18T04:33:31.797Z,29.8
2018-09-18T04:34:31.779Z,29.41
2018-09-18T04:35:31.521Z,29.03
2018-09-18T04:36:31.768Z,29.51
2018-09-18T04:37:31.761Z,28.17
2018-09-18T04:38:31.754Z,26.93
2018-09-18T04:39:31.751Z,26.84
2018-09-18T04:40:31.740Z,26.74
2018-09-18T04:41:31.729Z,27.12
2018-09-18T04:42:31.468Z,25.88
2018-09-18T04:43:31.715Z,24.83
2018-09-18T04:44:31.454Z,24.45
2018-09-18T04:45:31.700Z,24.35
2018-09-18T04:46:31.698Z,25.02
2018-09-18T04:47:31.694Z,24.93
2018-09-18T04:48:31.684Z,24.93
2018-09-18T04:49:31.677Z,25.21
2018-09-18T04:50:31.667Z,24.26
2018-09-18T04:51:31.658Z,23.21
2018-09-18T04:52:31.670Z,22.16
2018-09-18T04:53:31.648Z,22.54
2018-09-18T04:54:31.641Z,22.73
2018-09-18T04:55:31.642Z,23.11
2018-09-18T04:56:31.623Z,23.02
2018-09-18T04:57:31.361Z,22.54
2018-09-18T04:58:31.615Z,22.16
2018-09-18T04:59:31.346Z,22.16
2018-09-18T05:00:31.599Z,22.16
2018-09-18T05:01:31.595Z,21.58
2018-09-18T05:02:31.589Z,21.3
2018-09-18T05:03:31.317Z,20.92
2018-09-18T05:04:31.315Z,21.2
2018-09-18T05:05:31.561Z,21.2
2018-09-18T05:06:31.300Z,21.01
2018-09-18T05:07:31.550Z,21.01
2018-09-18T05:08:31.545Z,20.82
2018-09-18T05:09:31.279Z,20.34
2018-09-18T05:10:31.527Z,20.25
2018-09-18T05:11:31.519Z,20.53
2018-09-18T05:12:31.517Z,20.43
2018-09-18T05:13:31.254Z,20.25
2018-09-18T05:14:31.499Z,20.06
2018-09-18T05:15:31.492Z,19.67
2018-09-18T05:16:31.481Z,20.06
2018-09-18T05:17:31.221Z,20.63
2018-09-18T05:18:31.475Z,20.25
2018-09-18T05:19:31.460Z,19.67
2018-09-18T05:20:31.453Z,19.67
2018-09-18T05:21:31.447Z,19.2
2018-09-18T05:22:31.185Z,18.81
2018-09-18T05:23:31.432Z,18.33
2018-09-18T05:24:31.432Z,18.62
2018-09-18T05:25:31.582Z,19.2
2018-09-18T05:26:31.414Z,20.06
2018-09-18T05:27:31.406Z,19.86
2018-09-18T05:28:31.401Z,19.67
2018-09-18T05:29:31.395Z,20.53
2018-09-18T05:30:31.386Z,21.12
2018-09-18T05:31:31.381Z,21.69
2018-09-18T05:32:31.117Z,21.88
2018-09-18T05:33:31.451Z,21.78
2018-09-18T05:34:31.100Z,22.17
2018-09-18T05:35:31.351Z,22.64
2018-09-18T05:36:31.344Z,22.45
2018-09-18T05:37:31.339Z,23.12
2018-09-18T05:38:31.071Z,22.93
2018-09-18T05:39:31.327Z,23.6
2018-09-18T05:40:31.463Z,23.5
2018-09-18T05:41:31.310Z,24.74
2018-09-18T05:42:31.305Z,25.42
2018-09-18T05:43:31.295Z,25.32
2018-09-18T05:44:31.290Z,25.7
2018-09-18T05:45:31.281Z,26.37
2018-09-18T05:46:31.279Z,26.37
2018-09-18T05:47:31.271Z,26.66
2018-09-18T05:48:31.260Z,26.85
2018-09-18T05:49:30.997Z,26.76
2018-09-18T05:50:30.990Z,26.67
2018-09-18T05:51:31.239Z,26.48
2018-09-18T05:52:31.239Z,26.95
2018-09-18T05:53:31.222Z,27.62
2018-09-18T05:54:30.966Z,28.01
2018-09-18T05:55:31.213Z,28.01
2018-09-18T05:56:30.950Z,28.49
2018-09-18T05:57:31.205Z,28.68
2018-09-18T05:58:31.193Z,29.16
2018-09-18T05:59:31.187Z,29.83
2018-09-18T06:00:31.183Z,30.02
2018-09-18T06:01:31.174Z,30.4
2018-09-18T06:02:30.914Z,30.98
2018-09-18T06:03:31.165Z,32.21
2018-09-18T06:04:31.157Z,33
2018-09-18T06:05:31.151Z,34.05
2018-09-18T06:06:31.141Z,34.34
2018-09-18T06:07:31.141Z,35.86
2018-09-18T06:08:31.132Z,36.82
2018-09-18T06:09:31.129Z,35.96
2018-09-18T06:10:31.116Z,36.82
2018-09-18T06:11:31.112Z,37.59
2018-09-18T06:12:31.241Z,38.45
2018-09-18T06:13:31.103Z,39.14
2018-09-18T06:14:30.837Z,40
2018-09-18T06:15:31.086Z,41.44
2018-09-18T06:16:31.083Z,41.91
2018-09-18T06:17:31.076Z,42.68
2018-09-18T06:18:30.813Z,43.44
2018-09-18T06:19:31.071Z,43.73
2018-09-18T06:20:31.057Z,44.5
2018-09-18T06:21:31.055Z,45.26
2018-09-18T06:22:31.047Z,46.25
2018-09-18T06:23:31.039Z,46.8
2018-09-18T06:24:31.030Z,47.78
2018-09-18T06:25:31.029Z,48.44
2018-09-18T06:26:30.762Z,50.17
2018-09-18T06:27:31.014Z,51.13
2018-09-18T06:28:31.009Z,52.37
2018-09-18T06:29:31.001Z,53.04
2018-09-18T06:30:30.996Z,54.38
2018-09-18T06:31:30.992Z,55.36
2018-09-18T06:32:30.995Z,56.49
2018-09-18T06:33:30.727Z,56.99
2018-09-18T06:34:30.979Z,56.52
2018-09-18T06:35:30.716Z,57.19
2018-09-18T06:36:30.966Z,57.28
2018-09-18T06:37:30.703Z,58.62
2018-09-18T06:38:30.956Z,59.58
2018-09-18T06:39:30.694Z,59.58
2018-09-18T06:40:30.947Z,59.48
2018-09-18T06:41:30.727Z,59.58
2018-09-18T06:42:31.155Z,59.3
2018-09-18T06:43:30.930Z,60.44
2018-09-18T06:44:30.669Z,60.64
2018-09-18T06:45:30.919Z,61.02
2018-09-18T06:46:30.912Z,62.07
2018-09-18T06:47:30.652Z,61.79
2018-09-18T06:48:30.901Z,61.6
2018-09-18T06:49:30.903Z,61.24
2018-09-18T06:50:30.638Z,61.4
2018-09-18T06:51:30.891Z,61.72
2018-09-18T06:52:30.881Z,62.59
2018-09-18T06:53:30.879Z,63.73
2018-09-18T06:54:30.908Z,63.73
2018-09-18T06:55:30.869Z,63.16
2018-09-18T06:56:30.864Z,62.59
2018-09-18T06:57:30.862Z,62.1
2018-09-18T06:58:30.853Z,62.01
2018-09-18T06:59:30.850Z,61.43
2018-09-18T07:00:30.851Z,62.1
2018-09-18T07:01:30.581Z,63.06
2018-09-18T07:02:30.836Z,63.73
2018-09-18T07:03:30.830Z,63.92
2018-09-18T07:04:30.568Z,63.73
2018-09-18T07:05:30.868Z,63.73
2018-09-18T07:06:30.818Z,64.4
2018-09-18T07:07:30.813Z,63.76
2018-09-18T07:08:30.806Z,60.12
2018-09-18T07:09:30.801Z,60.96
2018-09-18T07:10:30.795Z,64.25
2018-09-18T07:11:30.790Z,65.88
2018-09-18T07:12:30.825Z,67.22
2018-09-18T07:13:30.782Z,67.32
2018-09-18T07:14:30.525Z,66.93
2018-09-18T07:15:30.776Z,68.59
2018-09-18T07:16:30.769Z,70.9
2018-09-18T07:17:30.770Z,72.05
2018-09-18T07:18:30.506Z,72.43
2018-09-18T07:19:30.504Z,73.68
2018-09-18T07:20:30.760Z,74.58
2018-09-18T07:21:30.750Z,74.19
2018-09-18T07:22:30.749Z,75.25
2018-09-18T07:23:30.738Z,76.4
2018-09-18T07:24:30.739Z,76.69
2018-09-18T07:25:30.734Z,76.5
2018-09-18T07:26:30.738Z,77.46
2018-09-18T07:27:30.471Z,78.52
2018-09-18T07:28:30.720Z,78.8
2018-09-18T07:29:30.867Z,79.32
2018-09-18T07:30:30.715Z,80.09
2018-09-18T07:31:30.709Z,80.47
2018-09-18T07:32:30.703Z,80.38
2018-09-18T07:33:30.444Z,81.53
2018-09-18T07:34:30.700Z,82.2
2018-09-18T07:35:30.440Z,82.97
2018-09-18T07:36:30.694Z,83.64
2018-09-18T07:37:30.685Z,83.97
2018-09-18T07:38:30.692Z,83.78
2018-09-18T07:39:30.726Z,83.97
2018-09-18T07:40:30.682Z,85.71
2018-09-18T07:41:30.680Z,86.18
2018-09-18T07:42:30.672Z,86.38
2018-09-18T07:43:30.413Z,85.71
2018-09-18T07:44:30.665Z,86.9
2018-09-18T07:45:30.664Z,87.86
2018-09-18T07:46:30.659Z,89.21
2018-09-18T07:47:30.655Z,89.11
2018-09-18T07:48:30.661Z,91.22
2018-09-18T07:49:30.650Z,92.67
2018-09-18T07:50:30.651Z,93.29
2018-09-18T07:51:30.644Z,94.35
2018-09-18T07:52:30.654Z,94.1
2018-09-18T07:53:30.645Z,93.91
2018-09-18T07:54:30.639Z,94.1
2018-09-18T07:55:30.379Z,95.07
2018-09-18T07:56:30.634Z,96.85
2018-09-18T07:57:30.633Z,95.21
2018-09-18T07:58:30.625Z,96.37
2018-09-18T07:59:30.627Z,96.42
2018-09-18T08:00:30.631Z,93.04
2018-09-18T08:01:30.367Z,95.26
2018-09-18T08:02:30.623Z,96.89
2018-09-18T08:03:30.623Z,96.8
2018-09-18T08:04:30.620Z,96.99
2018-09-18T08:05:30.614Z,97.52
2018-09-18T08:06:30.618Z,96.85
2018-09-18T08:07:30.612Z,97.42
2018-09-18T08:08:30.613Z,96.85
2018-09-18T08:09:30.608Z,97.33
2018-09-18T08:10:30.353Z,97.19
2018-09-18T08:11:30.607Z,96.7
2018-09-18T08:12:30.354Z,97.28
2018-09-18T08:13:30.601Z,96.8
2018-09-18T08:14:30.603Z,96.8
2018-09-18T08:15:30.604Z,96.89
2018-09-18T08:16:30.599Z,97.33
2018-09-18T08:17:30.604Z,96.27
2018-09-18T08:18:30.597Z,96.75
2018-09-18T08:19:31.107Z,96.56
2018-09-18T08:20:30.597Z,95.4
2018-09-18T08:21:30.595Z,95.64
2018-09-18T08:22:30.593Z,95.45
2018-09-18T08:23:30.658Z,95.64
2018-09-18T08:24:30.589Z,94.77
2018-09-18T08:25:30.697Z,96.12
2018-09-18T08:26:30.386Z,96.03
2018-09-18T08:27:30.334Z,95.45
2018-09-18T08:28:30.596Z,95.54
2018-09-18T08:29:30.593Z,95.54
2018-09-18T08:30:30.593Z,96.31
2018-09-18T08:31:30.591Z,95.83
2018-09-18T08:32:30.617Z,94.48
2018-09-18T08:33:30.590Z,94.77
2018-09-18T08:34:30.597Z,94.77
2018-09-18T08:35:30.588Z,94.2
2018-09-18T08:36:30.586Z,94.2
2018-09-18T08:37:30.327Z,95.06
2018-09-18T08:38:30.595Z,94.96
2018-09-18T08:39:30.329Z,95.98
2018-09-18T08:40:30.611Z,95.4
2018-09-18T08:41:30.610Z,93.76
2018-09-18T08:42:30.585Z,93.85
2018-09-18T08:43:30.340Z,94.62
2018-09-18T08:44:30.343Z,94.82
2018-09-18T08:45:30.592Z,94.92
2018-09-18T08:46:30.348Z,93.95
2018-09-18T08:47:30.587Z,94.53
2018-09-18T08:48:30.637Z,92.5
2018-09-18T08:49:30.589Z,92.5
2018-09-18T08:50:30.628Z,92.69
2018-09-18T08:51:30.624Z,94.43
2018-09-18T08:52:30.663Z,93.76
2018-09-18T08:53:30.592Z,93.99
2018-09-18T08:54:30.732Z,93.85
2018-09-18T08:55:30.587Z,92.69
2018-09-18T08:56:30.591Z,90.81
2018-09-18T08:57:30.585Z,89.26
2018-09-18T08:58:30.612Z,91.19
2018-09-18T08:59:30.327Z,90.23
2018-09-18T09:00:30.590Z,91
2018-09-18T09:01:30.606Z,94.38
2018-09-18T09:02:30.586Z,91.87
2018-09-18T09:03:30.602Z,90.52
2018-09-18T09:04:30.722Z,90.61
2018-09-18T09:05:30.334Z,90.33
2018-09-18T09:06:30.791Z,90.52
2018-09-18T09:07:30.806Z,88.78
2018-09-18T09:08:30.704Z,87.04
2018-09-18T09:09:30.759Z,92.83
2018-09-18T09:10:30.723Z,90.52
2018-09-18T09:11:30.631Z,90.08
2018-09-18T09:12:30.603Z,90.61
2018-09-18T09:13:30.344Z,92.83
2018-09-18T09:14:30.912Z,89.55
2018-09-18T09:15:30.845Z,87.85
2018-09-18T09:16:30.592Z,89.4
2018-09-18T09:17:30.340Z,88.63
2018-09-18T09:18:30.827Z,90.27
2018-09-18T09:19:30.629Z,88.15
2018-09-18T09:20:30.605Z,87.08
2018-09-18T09:21:30.607Z,85.63
2018-09-18T09:22:30.624Z,85.83
2018-09-18T09:23:30.624Z,86.45
2018-09-18T09:24:30.345Z,86.55
2018-09-18T09:25:30.597Z,84.52
2018-09-18T09:26:30.742Z,84.03
2018-09-18T09:27:30.866Z,84.13
2018-09-18T09:28:30.598Z,78.33
2018-09-18T09:29:30.596Z,83.45
2018-09-18T09:30:30.648Z,82.33
2018-09-18T09:31:30.650Z,81.07
2018-09-18T09:32:30.640Z,77.98
2018-09-18T09:33:30.370Z,79.62
2018-09-18T09:34:30.630Z,80.79
2018-09-18T09:35:30.654Z,76.53
2018-09-18T09:36:30.363Z,78.85
2018-09-18T09:37:30.643Z,75.56
2018-09-18T09:38:30.606Z,73.04
2018-09-18T09:39:30.610Z,72.46
2018-09-18T09:40:30.606Z,71.72
2018-09-18T09:41:30.606Z,72.75
2018-09-18T09:42:30.620Z,75.37
2018-09-18T09:43:30.611Z,76.14
2018-09-18T09:44:30.611Z,74.34
2018-09-18T09:45:30.616Z,70.27
2018-09-18T09:46:30.610Z,71.01
2018-09-18T09:47:30.359Z,69.59
2018-09-18T09:48:30.613Z,65.14
2018-09-18T09:49:30.682Z,60.4
2018-09-18T09:50:30.359Z,61.24
2018-09-18T09:51:30.441Z,61.18
2018-09-18T09:52:30.369Z,63.89
2018-09-18T09:53:30.632Z,60.98
2018-09-18T09:54:30.618Z,60.11
2018-09-18T09:55:30.623Z,63.59
2018-09-18T09:56:30.620Z,60.5
2018-09-18T09:57:30.367Z,58.85
2018-09-18T09:58:30.627Z,58.88
2018-09-18T09:59:30.635Z,57.11
2018-09-18T10:00:30.629Z,58.01
2018-09-18T10:01:30.629Z,58.17
2018-09-18T10:02:30.632Z,54.79
2018-09-18T10:03:30.628Z,56.14
2018-09-18T10:04:30.643Z,55.17
2018-09-18T10:05:30.638Z,54.39
2018-09-18T10:06:30.382Z,56.24
2018-09-18T10:07:30.636Z,52.68
2018-09-18T10:08:30.636Z,50.26
2018-09-18T10:09:30.384Z,49.29
2018-09-18T10:10:30.867Z,53.85
2018-09-18T10:11:30.640Z,53.65
2018-09-18T10:12:30.389Z,53.07
2018-09-18T10:13:30.674Z,53.65
2018-09-18T10:14:30.654Z,52.78
2018-09-18T10:15:30.654Z,50.65
2018-09-18T10:16:30.668Z,55.3
2018-09-18T10:17:30.655Z,55
2018-09-18T10:18:30.651Z,52.39
2018-09-18T10:19:30.655Z,50.19
2018-09-18T10:20:30.689Z,46.99
2018-09-18T10:21:30.663Z,46.6
2018-09-18T10:22:30.658Z,50.09
2018-09-18T10:23:30.407Z,47.19
2018-09-18T10:24:30.704Z,46.99
2018-09-18T10:25:30.715Z,46.51
2018-09-18T10:26:31.003Z,45.92
2018-09-18T10:27:30.678Z,46.7
2018-09-18T10:28:30.699Z,45.54
2018-09-18T10:29:30.702Z,45.64
2018-09-18T10:30:30.701Z,45.44
2018-09-18T10:31:30.708Z,45.44
2018-09-18T10:32:30.692Z,45.73
2018-09-18T10:33:30.678Z,46.31
2018-09-18T10:34:30.704Z,46.99
2018-09-18T10:35:30.724Z,47.38
2018-09-18T10:36:30.705Z,48.47
2018-09-18T10:37:30.456Z,45.95
2018-09-18T10:38:30.435Z,46.14
2018-09-18T10:39:30.716Z,46.04
2018-09-18T10:40:30.438Z,47.69
2018-09-18T10:41:31.062Z,46.43
2018-09-18T10:42:30.698Z,45.56
2018-09-18T10:43:30.796Z,47.2
2018-09-18T10:44:30.710Z,45.56
2018-09-18T10:45:30.726Z,44.3
2018-09-18T10:46:30.726Z,43.13
2018-09-18T10:47:30.749Z,43.33
2018-09-18T10:48:30.708Z,42.94
2018-09-18T10:49:30.897Z,44.4
2018-09-18T10:50:30.708Z,43.43
2018-09-18T10:51:30.711Z,43.23
2018-09-18T10:52:30.463Z,44.4
2018-09-18T10:53:30.718Z,44.78
2018-09-18T10:54:30.724Z,47.11
2018-09-18T10:55:30.865Z,45.95
2018-09-18T10:56:30.724Z,44.3
2018-09-18T10:57:30.730Z,45.37
2018-09-18T10:58:30.467Z,46.24
2018-09-18T10:59:30.729Z,44.98
2018-09-18T11:00:30.495Z,46.04
2018-09-18T11:01:30.740Z,43.45
2018-09-18T11:02:30.758Z,42.77
2018-09-18T11:03:30.739Z,43.26
2018-09-18T11:04:30.488Z,43.16
2018-09-18T11:05:30.509Z,43.45
2018-09-18T11:06:30.781Z,42.67
2018-09-18T11:07:30.781Z,44.9
2018-09-18T11:08:30.923Z,44.42
2018-09-18T11:09:30.846Z,43.64
2018-09-18T11:10:30.501Z,44.42
2018-09-18T11:11:30.837Z,43.45
2018-09-18T11:12:30.496Z,42.57
2018-09-18T11:13:30.975Z,42.19
2018-09-18T11:14:30.500Z,44.9
2018-09-18T11:15:31.021Z,46.36
2018-09-18T11:16:30.797Z,44.61
2018-09-18T11:17:30.801Z,43.84
2018-09-18T11:18:30.792Z,43.64
2018-09-18T11:19:30.818Z,42.79
2018-09-18T11:20:30.929Z,42.11
2018-09-18T11:21:30.534Z,41.14
2018-09-18T11:22:31.331Z,41.43
2018-09-18T11:23:30.556Z,40.95
2018-09-18T11:24:30.831Z,39.11
2018-09-18T11:25:30.825Z,40.92
2018-09-18T11:26:30.531Z,40.25
2018-09-18T11:27:30.841Z,39.18
2018-09-18T11:28:30.559Z,40.15
2018-09-18T11:29:30.796Z,39.76
2018-09-18T11:30:30.826Z,40.83
2018-09-18T11:31:30.984Z,38.12
2018-09-18T11:32:30.838Z,37.45
2018-09-18T11:33:30.829Z,37.16
2018-09-18T11:34:30.838Z,37.26
2018-09-18T11:35:30.808Z,37.05
2018-09-18T11:36:30.811Z,37.63
2018-09-18T11:37:30.825Z,37.34
2018-09-18T11:38:30.813Z,36.85
2018-09-18T11:39:30.824Z,39.28
2018-09-18T11:40:30.817Z,38.23
2018-09-18T11:41:30.826Z,37.94
2018-09-18T11:42:30.826Z,36.58
2018-09-18T11:43:30.571Z,35.61
2018-09-18T11:44:30.575Z,35.88
2018-09-18T11:45:31.001Z,36.76
2018-09-18T11:46:30.954Z,37.24
2018-09-18T11:47:30.841Z,37.43
2018-09-18T11:48:30.843Z,37.82
2018-09-18T11:49:30.847Z,37.05
2018-09-18T11:50:30.850Z,37.15
2018-09-18T11:51:31.099Z,39.47
2018-09-18T11:52:30.859Z,38.19
2018-09-18T11:53:30.871Z,37.9
2018-09-18T11:54:30.603Z,38.48
2018-09-18T11:55:30.856Z,38.58
2018-09-18T11:56:30.867Z,38.29
2018-09-18T11:57:30.859Z,37.9
2018-09-18T11:58:31.085Z,38.87
2018-09-18T11:59:30.869Z,38.48
2018-09-18T12:00:30.872Z,39.74
2018-09-18T12:01:30.617Z,39.45
2018-09-18T12:02:30.877Z,38.96
2018-09-18T12:03:30.622Z,39.47
2018-09-18T12:04:30.947Z,40.61
2018-09-18T12:05:30.889Z,40.91
2018-09-18T12:06:30.888Z,41.2
2018-09-18T12:07:30.886Z,40.71
2018-09-18T12:08:30.892Z,42.07
2018-09-18T12:09:30.895Z,41.49
2018-09-18T12:10:30.637Z,41.49
2018-09-18T12:11:30.822Z,41.97
2018-09-18T12:12:30.945Z,41.1
2018-09-18T12:13:30.913Z,39.45
2018-09-18T12:14:30.907Z,39.26
2018-09-18T12:15:30.905Z,39.74
2018-09-18T12:16:30.911Z,40.42
2018-09-18T12:17:30.913Z,40.81
2018-09-18T12:18:30.659Z,40.61
2018-09-18T12:19:30.923Z,41.2
2018-09-18T12:20:30.914Z,41.88
2018-09-18T12:21:30.920Z,41.39
2018-09-18T12:22:30.729Z,41.58
2018-09-18T12:23:30.930Z,41.78
2018-09-18T12:24:30.931Z,41.3
2018-09-18T12:25:30.929Z,41.97
2018-09-18T12:26:30.942Z,43.43
2018-09-18T12:27:31.000Z,41.88
2018-09-18T12:28:31.063Z,41.78
2018-09-18T12:29:30.941Z,42.26
2018-09-18T12:30:30.944Z,41.97
2018-09-18T12:31:30.940Z,41.58
2018-09-18T12:32:30.947Z,42.55
2018-09-18T12:33:30.950Z,42.54
2018-09-18T12:34:30.953Z,43.5
2018-09-18T12:35:31.291Z,43.52
2018-09-18T12:36:30.960Z,43.43
2018-09-18T12:37:30.961Z,43.33
2018-09-18T12:38:31.004Z,44.4
2018-09-18T12:39:30.965Z,44.68
2018-09-18T12:40:30.964Z,44.4
2018-09-18T12:41:31.307Z,43.89
2018-09-18T12:42:31.358Z,44.3
2018-09-18T12:43:30.973Z,44.88
2018-09-18T12:44:30.978Z,44.59
2018-09-18T12:45:30.725Z,43.62
2018-09-18T12:46:30.978Z,42.94
2018-09-18T12:47:30.984Z,42.36
2018-09-18T12:48:30.984Z,42.65
2018-09-18T12:49:31.253Z,43.23
2018-09-18T12:50:31.437Z,42.17
2018-09-18T12:51:30.735Z,42.07
2018-09-18T12:52:30.738Z,41.88
2018-09-18T12:53:31.019Z,42.55
2018-09-18T12:54:31.004Z,43.72
2018-09-18T12:55:31.004Z,44.4
2018-09-18T12:56:31.012Z,43.33